createdAt,value
2019-03-29T00:00:26.105Z,65.08
2019-03-29T00:02:57.068Z,65.27
2019-03-29T00:05:27.788Z,65.44
2019-03-29T00:07:58.624Z,65.10
2019-03-29T00:10:29.867Z,65.43
2019-03-29T00:13:00.603Z,65.73
2019-03-29T00:15:31.637Z,65.60
2019-03-29T00:18:02.328Z,65.52
2019-03-29T00:20:33.292Z,65.77
2019-03-29T00:23:04.329Z,65.24
2019-03-29T00:25:35.893Z,65.68
2019-03-29T00:28:06.957Z,65.84
2019-03-29T00:30:37.415Z,65.91
2019-03-29T00:33:07.900Z,65.97
2019-03-29T00:35:38.460Z,65.95
2019-03-29T00:38:09.242Z,65.92
2019-03-29T00:40:40.202Z,65.68
2019-03-29T00:43:10.823Z,65.52
2019-03-29T00:45:42.288Z,65.48
2019-03-29T00:48:12.931Z,65.63
2019-03-29T00:50:43.961Z,65.91
2019-03-29T00:53:14.586Z,65.69
2019-03-29T00:55:45.469Z,66.03
2019-03-29T00:58:17.208Z,66.18
2019-03-29T01:00:47.482Z,66.33
2019-03-29T01:03:18.341Z,66.44
2019-03-29T01:05:48.872Z,66.51
2019-03-29T01:08:19.765Z,66.63
2019-03-29T01:10:50.408Z,66.76
2019-03-29T01:13:20.974Z,66.88
2019-03-29T01:15:51.924Z,66.82
2019-03-29T01:18:23.064Z,66.67
2019-03-29T01:20:53.722Z,66.66
2019-03-29T01:23:24.393Z,66.53
2019-03-29T01:25:54.982Z,66.43
2019-03-29T01:28:25.618Z,66.29
2019-03-29T01:30:56.222Z,66.24
2019-03-29T01:33:26.802Z,66.19
2019-03-29T01:35:57.695Z,66.16
2019-03-29T01:38:28.242Z,66.09
2019-03-29T01:40:59.060Z,66.01
2019-03-29T01:43:29.705Z,65.94
2019-03-29T01:46:01.094Z,65.69
2019-03-29T01:48:31.614Z,65.63
2019-03-29T01:51:02.326Z,65.74
2019-03-29T01:53:33.186Z,65.75
2019-03-29T01:56:03.714Z,65.80
2019-03-29T01:58:34.550Z,65.90
2019-03-29T02:01:05.192Z,65.97
2019-03-29T02:03:36.039Z,66.16
2019-03-29T02:06:06.858Z,66.28
2019-03-29T02:08:37.933Z,66.54
2019-03-29T02:11:08.836Z,66.67
2019-03-29T02:13:39.542Z,66.78
2019-03-29T02:16:10.139Z,66.86
2019-03-29T02:18:40.964Z,66.93
2019-03-29T02:21:12.345Z,66.96
2019-03-29T02:23:43.066Z,66.93
2019-03-29T02:26:13.775Z,67.01
2019-03-29T02:28:44.983Z,67.02
2019-03-29T02:31:16.392Z,67.06
2019-03-29T02:33:48.558Z,67.07
2019-03-29T02:36:19.295Z,67.06
2019-03-29T02:38:55.783Z,67.03
2019-03-29T02:41:22.440Z,67.00
2019-03-29T02:43:53.316Z,67.00
2019-03-29T02:46:25.688Z,67.02
2019-03-29T02:48:57.329Z,67.09
2019-03-29T02:51:28.287Z,67.14
2019-03-29T02:53:58.904Z,67.15
2019-03-29T02:56:29.760Z,67.10
2019-03-29T02:59:00.415Z,67.07
2019-03-29T03:01:31.163Z,67.02
2019-03-29T03:04:02.722Z,66.92
2019-03-29T03:06:33.701Z,66.89
2019-03-29T03:09:13.702Z,66.72
2019-03-29T03:11:38.640Z,66.17
2019-03-29T03:14:09.349Z,66.43
2019-03-29T03:16:39.817Z,66.38
2019-03-29T03:19:10.529Z,66.17
2019-03-29T03:21:41.576Z,66.31
2019-03-29T03:24:12.152Z,66.24
2019-03-29T03:26:42.962Z,66.05
2019-03-29T03:29:13.659Z,66.04
2019-03-29T03:31:44.423Z,65.92
2019-03-29T03:34:15.533Z,65.83
2019-03-29T03:36:46.089Z,65.76
2019-03-29T03:39:30.683Z,65.50
2019-03-29T03:41:49.811Z,65.38
2019-03-29T03:44:20.844Z,64.94
2019-03-29T03:46:52.159Z,65.46
2019-03-29T03:49:22.841Z,65.49
2019-03-29T03:51:53.476Z,65.29
2019-03-29T03:54:24.450Z,65.17
2019-03-29T03:56:55.756Z,65.08
2019-03-29T03:59:26.346Z,63.79
2019-03-29T04:01:56.972Z,65.00
2019-03-29T04:04:27.497Z,65.06
2019-03-29T04:06:58.745Z,65.12
2019-03-29T04:09:48.102Z,65.05
2019-03-29T04:12:02.488Z,64.94
2019-03-29T04:14:33.367Z,64.92
2019-03-29T04:17:04.095Z,64.59
2019-03-29T04:19:34.913Z,64.56
2019-03-29T04:22:05.962Z,64.33
2019-03-29T04:24:36.595Z,64.13
2019-03-29T04:27:07.274Z,63.92
2019-03-29T04:29:38.046Z,63.41
2019-03-29T04:32:08.701Z,63.37
2019-03-29T04:34:40.100Z,63.44
2019-03-29T04:37:11.374Z,62.98
2019-03-29T04:39:42.169Z,63.14
2019-03-29T04:42:13.455Z,63.00
2019-03-29T04:44:44.079Z,62.87
2019-03-29T04:47:14.771Z,63.00
2019-03-29T04:49:45.916Z,63.03
2019-03-29T04:52:16.624Z,62.53
2019-03-29T04:54:47.551Z,62.80
2019-03-29T04:57:18.116Z,62.40
2019-03-29T04:59:49.203Z,61.69
2019-03-29T05:02:21.901Z,62.33
2019-03-29T05:04:52.629Z,61.85
2019-03-29T05:07:24.544Z,62.08
2019-03-29T05:09:55.256Z,62.04
2019-03-29T05:12:27.434Z,61.85
2019-03-29T05:14:58.156Z,61.92
2019-03-29T05:17:29.550Z,61.86
2019-03-29T05:20:00.367Z,62.17
2019-03-29T05:22:31.304Z,61.64
2019-03-29T05:25:02.089Z,62.59
2019-03-29T05:27:36.220Z,62.85
2019-03-29T05:30:07.440Z,62.96
2019-03-29T05:32:39.527Z,62.77
2019-03-29T05:35:10.505Z,62.87
2019-03-29T05:37:41.342Z,63.66
2019-03-29T05:40:12.445Z,64.09
2019-03-29T05:42:43.523Z,64.23
2019-03-29T05:45:14.534Z,64.75
2019-03-29T05:47:45.425Z,65.03
2019-03-29T05:50:16.190Z,65.63
2019-03-29T05:52:47.168Z,66.17
2019-03-29T05:55:18.727Z,66.66
2019-03-29T05:57:49.624Z,67.01
2019-03-29T06:00:20.645Z,67.17
2019-03-29T06:02:51.336Z,67.40
2019-03-29T06:05:22.128Z,67.54
2019-03-29T06:07:53.134Z,67.79
2019-03-29T06:10:24.134Z,67.92
2019-03-29T06:12:55.320Z,68.17
2019-03-29T06:15:26.473Z,68.52
2019-03-29T06:17:57.399Z,68.81
2019-03-29T06:20:28.271Z,68.92
2019-03-29T06:22:59.013Z,69.01
2019-03-29T06:25:30.325Z,69.24
2019-03-29T06:28:01.119Z,69.63
2019-03-29T06:30:32.861Z,69.95
2019-03-29T06:33:03.847Z,70.04
2019-03-29T06:35:37.730Z,70.13
2019-03-29T06:38:09.184Z,70.34
2019-03-29T06:40:40.181Z,70.41
2019-03-29T06:43:10.980Z,70.65
2019-03-29T06:45:48.257Z,70.68
2019-03-29T06:48:15.214Z,70.82
2019-03-29T06:50:46.465Z,71.02
2019-03-29T06:53:17.552Z,71.01
2019-03-29T06:55:48.700Z,71.11
2019-03-29T06:58:19.456Z,71.41
2019-03-29T07:00:51.350Z,71.74
2019-03-29T07:03:22.497Z,71.80
2019-03-29T07:05:53.121Z,71.75
2019-03-29T07:08:23.944Z,71.81
2019-03-29T07:10:54.950Z,71.76
2019-03-29T07:13:25.926Z,72.06
2019-03-29T07:15:56.800Z,72.28
2019-03-29T07:18:27.488Z,72.68
2019-03-29T07:20:59.380Z,72.91
2019-03-29T07:23:30.080Z,73.06
2019-03-29T07:26:03.808Z,73.22
2019-03-29T07:28:34.766Z,73.35
2019-03-29T07:31:06.585Z,73.52
2019-03-29T07:33:37.274Z,73.63
2019-03-29T07:36:08.184Z,73.28
2019-03-29T07:38:38.944Z,73.53
2019-03-29T07:41:09.732Z,73.63
2019-03-29T07:43:40.539Z,73.58
2019-03-29T07:46:13.111Z,73.44
2019-03-29T07:48:46.444Z,73.49
2019-03-29T07:51:17.472Z,73.53
2019-03-29T07:53:48.742Z,73.64
2019-03-29T07:56:19.826Z,73.58
2019-03-29T07:58:50.449Z,73.69
2019-03-29T08:01:21.275Z,73.83
2019-03-29T08:03:53.539Z,73.90
2019-03-29T08:06:24.225Z,74.16
2019-03-29T08:08:55.260Z,74.38
2019-03-29T08:11:26.818Z,74.44
2019-03-29T08:13:58.740Z,74.45
2019-03-29T08:16:29.558Z,74.58
2019-03-29T08:19:00.651Z,74.82
2019-03-29T08:21:31.615Z,74.55
2019-03-29T08:24:02.962Z,75.02
2019-03-29T08:26:34.323Z,75.13
2019-03-29T08:29:05.236Z,75.41
2019-03-29T08:31:36.105Z,75.07
2019-03-29T08:34:09.689Z,75.35
2019-03-29T08:36:40.384Z,75.47
2019-03-29T08:39:11.627Z,75.37
2019-03-29T08:41:42.272Z,75.32
2019-03-29T08:44:13.177Z,75.18
2019-03-29T08:46:44.333Z,75.21
2019-03-29T08:49:16.793Z,74.95
2019-03-29T08:51:47.691Z,74.86
2019-03-29T08:54:18.597Z,74.68
2019-03-29T08:56:49.556Z,74.47
2019-03-29T08:59:21.259Z,74.28
2019-03-29T09:01:53.064Z,73.97
2019-03-29T09:04:24.164Z,74.05
2019-03-29T09:06:55.184Z,74.27
2019-03-29T09:09:26.555Z,74.40
2019-03-29T09:11:57.721Z,74.34
2019-03-29T09:14:31.244Z,74.33
2019-03-29T09:17:01.049Z,74.29
2019-03-29T09:19:31.754Z,74.11
2019-03-29T09:22:02.195Z,74.02
2019-03-29T09:24:33.531Z,73.76
2019-03-29T09:27:04.416Z,73.22
2019-03-29T09:29:35.093Z,73.15
2019-03-29T09:32:05.783Z,73.13
2019-03-29T09:34:38.827Z,73.04
2019-03-29T09:37:09.490Z,72.93
2019-03-29T09:39:40.307Z,72.72
2019-03-29T09:42:11.518Z,72.83
2019-03-29T09:44:42.454Z,72.95
2019-03-29T09:47:13.612Z,73.52
2019-03-29T09:49:44.281Z,73.85
2019-03-29T09:52:15.729Z,73.80
2019-03-29T09:54:46.685Z,73.83
2019-03-29T09:57:17.777Z,73.86
2019-03-29T09:59:48.751Z,73.83
2019-03-29T10:02:19.447Z,73.75
2019-03-29T10:04:50.686Z,73.71
2019-03-29T10:07:21.915Z,73.53
2019-03-29T10:09:52.410Z,73.37
2019-03-29T10:12:23.081Z,73.10
2019-03-29T10:14:53.743Z,72.98
2019-03-29T10:17:25.695Z,72.98
2019-03-29T10:19:56.549Z,72.95
2019-03-29T10:22:27.277Z,72.57
2019-03-29T10:24:57.933Z,72.73
2019-03-29T10:27:28.740Z,72.69
2019-03-29T10:29:59.838Z,72.38
2019-03-29T10:32:31.141Z,72.20
2019-03-29T10:35:02.130Z,71.75
2019-03-29T10:37:33.155Z,71.32
2019-03-29T10:40:04.024Z,70.53
2019-03-29T10:42:34.867Z,70.61
2019-03-29T10:45:06.567Z,71.04
2019-03-29T10:47:43.819Z,71.12
2019-03-29T10:50:10.000Z,71.21
2019-03-29T10:52:40.738Z,71.64
2019-03-29T10:55:11.439Z,71.88
2019-03-29T10:57:42.181Z,72.29
2019-03-29T11:00:17.609Z,72.54
2019-03-29T11:02:48.442Z,72.68
2019-03-29T11:05:19.570Z,72.67
2019-03-29T11:07:51.161Z,72.75
2019-03-29T11:10:30.220Z,72.56
2019-03-29T11:13:12.550Z,72.17
2019-03-29T11:15:34.425Z,72.56
2019-03-29T11:18:05.667Z,72.52
2019-03-29T11:20:36.721Z,72.34
2019-03-29T11:23:07.918Z,72.52
2019-03-29T11:25:38.584Z,72.50
2019-03-29T11:28:09.869Z,72.34
2019-03-29T11:30:42.953Z,72.33
2019-03-29T11:33:13.268Z,71.56
2019-03-29T11:35:44.361Z,71.86
2019-03-29T11:38:15.343Z,72.24
2019-03-29T11:40:46.464Z,72.49
2019-03-29T11:43:26.458Z,72.65
2019-03-29T11:45:50.261Z,72.68
2019-03-29T11:48:21.547Z,72.20
2019-03-29T11:50:52.650Z,72.07
2019-03-29T11:53:23.325Z,72.00
2019-03-29T11:55:55.361Z,72.23
2019-03-29T11:58:26.235Z,72.34
2019-03-29T12:00:57.424Z,72.45
2019-03-29T12:03:29.780Z,72.42
2019-03-29T12:06:00.922Z,72.31
2019-03-29T12:08:32.429Z,72.30
2019-03-29T12:11:03.423Z,72.18
2019-03-29T12:13:41.044Z,72.27
2019-03-29T12:16:07.465Z,72.31
2019-03-29T12:18:38.225Z,72.14
2019-03-29T12:21:09.076Z,72.12
2019-03-29T12:23:40.073Z,72.37
2019-03-29T12:26:14.776Z,72.14
2019-03-29T12:28:46.166Z,72.76
2019-03-29T12:31:17.449Z,73.13
2019-03-29T12:33:48.314Z,73.22
2019-03-29T12:36:19.206Z,73.28
2019-03-29T12:38:50.133Z,73.58
2019-03-29T12:41:20.884Z,73.69
2019-03-29T12:43:55.679Z,73.50
2019-03-29T12:46:24.664Z,73.55
2019-03-29T12:48:55.782Z,73.57
2019-03-29T12:51:26.697Z,73.65
2019-03-29T12:53:57.577Z,73.91
2019-03-29T12:56:28.147Z,74.06
2019-03-29T12:58:58.907Z,74.11
2019-03-29T13:01:39.187Z,74.22
2019-03-29T13:04:02.085Z,74.30
2019-03-29T13:06:33.027Z,74.37
2019-03-29T13:09:04.972Z,74.32
2019-03-29T13:11:35.839Z,74.29
2019-03-29T13:14:10.632Z,74.45
2019-03-29T13:16:39.462Z,74.54
2019-03-29T13:19:10.166Z,74.69
2019-03-29T13:21:40.884Z,74.97
2019-03-29T13:24:15.712Z,75.15
2019-03-29T13:26:44.692Z,75.12
2019-03-29T13:29:15.455Z,75.32
2019-03-29T13:31:46.585Z,75.53
2019-03-29T13:34:19.756Z,75.53
2019-03-29T13:36:50.702Z,75.38
2019-03-29T13:39:21.755Z,75.47
2019-03-29T13:41:52.484Z,75.54
2019-03-29T13:44:24.473Z,75.65
2019-03-29T13:46:55.790Z,75.89
2019-03-29T13:49:26.521Z,76.00
2019-03-29T13:51:57.420Z,75.99
2019-03-29T13:54:28.332Z,76.14
2019-03-29T13:56:59.584Z,76.15
2019-03-29T13:59:32.008Z,76.29
2019-03-29T14:02:02.941Z,76.35
2019-03-29T14:04:33.792Z,76.36
2019-03-29T14:07:05.044Z,76.38
2019-03-29T14:09:35.603Z,76.43
2019-03-29T14:12:06.951Z,76.53
2019-03-29T14:14:38.834Z,76.63
2019-03-29T14:17:09.835Z,76.71
2019-03-29T14:19:40.752Z,76.70
2019-03-29T14:22:11.472Z,76.88
2019-03-29T14:24:42.275Z,76.96
2019-03-29T14:27:13.166Z,77.15
2019-03-29T14:29:43.933Z,77.17
2019-03-29T14:32:14.626Z,77.24
2019-03-29T14:34:45.554Z,77.17
2019-03-29T14:37:16.508Z,77.08
2019-03-29T14:39:46.811Z,77.13
2019-03-29T14:42:17.843Z,76.95
2019-03-29T14:44:52.608Z,76.89
2019-03-29T14:47:21.406Z,76.81
2019-03-29T14:49:51.883Z,76.77
2019-03-29T14:52:23.096Z,76.81
2019-03-29T14:54:54.168Z,76.87
2019-03-29T14:57:24.913Z,77.07
2019-03-29T14:59:55.710Z,77.12
2019-03-29T15:02:26.704Z,77.18
2019-03-29T15:04:58.537Z,77.30
2019-03-29T15:07:30.501Z,77.24
2019-03-29T15:10:01.689Z,77.36
2019-03-29T15:12:32.969Z,77.45
2019-03-29T15:15:06.302Z,77.38
2019-03-29T15:17:37.431Z,77.24
2019-03-29T15:20:08.684Z,77.52
2019-03-29T15:22:39.461Z,77.69
2019-03-29T15:25:10.279Z,77.78
2019-03-29T15:27:41.169Z,77.75
2019-03-29T15:30:12.559Z,77.84
2019-03-29T15:32:43.010Z,77.87
2019-03-29T15:35:14.179Z,77.94
2019-03-29T15:37:47.983Z,77.96
2019-03-29T15:40:19.014Z,77.96
2019-03-29T15:42:51.814Z,77.99
2019-03-29T15:45:22.741Z,77.93
2019-03-29T15:47:57.165Z,77.92
2019-03-29T15:50:27.672Z,77.76
2019-03-29T15:52:59.189Z,77.61
2019-03-29T15:55:30.089Z,77.65
2019-03-29T15:58:00.885Z,77.65
2019-03-29T16:00:31.682Z,77.68
2019-03-29T16:03:02.951Z,77.73
2019-03-29T16:05:33.682Z,77.75
2019-03-29T16:08:04.184Z,77.74
2019-03-29T16:10:35.463Z,77.79
2019-03-29T16:13:06.271Z,77.77
2019-03-29T16:15:38.530Z,77.79
2019-03-29T16:18:09.938Z,77.91
2019-03-29T16:20:41.562Z,78.18
2019-03-29T16:23:12.815Z,78.27
2019-03-29T16:25:44.036Z,78.47
2019-03-29T16:28:15.040Z,78.60
2019-03-29T16:30:46.534Z,78.64
2019-03-29T16:33:17.464Z,78.73
2019-03-29T16:35:51.634Z,78.64
2019-03-29T16:38:22.653Z,78.69
2019-03-29T16:40:53.824Z,78.71
2019-03-29T16:43:24.867Z,78.95
2019-03-29T16:45:55.800Z,78.93
2019-03-29T16:48:26.881Z,78.88
2019-03-29T16:50:57.697Z,78.79
2019-03-29T16:53:28.638Z,78.81
2019-03-29T16:55:59.570Z,78.82
2019-03-29T16:58:30.108Z,78.79
2019-03-29T17:01:00.677Z,78.75
2019-03-29T17:03:31.796Z,78.77
2019-03-29T17:06:02.650Z,78.74
2019-03-29T17:08:33.572Z,78.67
2019-03-29T17:11:04.771Z,78.60
2019-03-29T17:13:35.386Z,78.69
2019-03-29T17:16:06.288Z,78.75
2019-03-29T17:18:40.007Z,78.74
2019-03-29T17:21:10.620Z,78.71
2019-03-29T17:23:43.706Z,78.75
2019-03-29T17:26:16.080Z,78.67
2019-03-29T17:28:46.787Z,78.64
2019-03-29T17:31:18.124Z,78.63
2019-03-29T17:33:49.140Z,78.62
2019-03-29T17:36:19.861Z,78.56
2019-03-29T17:38:51.832Z,78.37
2019-03-29T17:41:22.470Z,78.16
2019-03-29T17:43:53.996Z,78.07
2019-03-29T17:46:24.829Z,78.07
2019-03-29T17:48:56.348Z,77.89
2019-03-29T17:51:27.413Z,77.87
2019-03-29T17:54:01.304Z,77.89
2019-03-29T17:56:32.432Z,77.81
2019-03-29T17:59:03.328Z,77.75
2019-03-29T18:01:33.999Z,77.73
2019-03-29T18:04:04.780Z,77.72
2019-03-29T18:06:35.549Z,77.65
2019-03-29T18:09:07.327Z,77.60
2019-03-29T18:11:38.517Z,77.55
2019-03-29T18:14:09.427Z,77.51
2019-03-29T18:16:40.344Z,77.50
2019-03-29T18:19:11.970Z,77.44
2019-03-29T18:21:44.328Z,77.42
2019-03-29T18:24:14.808Z,77.33
2019-03-29T18:26:45.559Z,77.33
2019-03-29T18:29:16.414Z,77.35
2019-03-29T18:31:47.484Z,77.39
2019-03-29T18:34:18.360Z,77.42
2019-03-29T18:36:49.906Z,77.43
2019-03-29T18:39:21.651Z,77.46
2019-03-29T18:41:52.354Z,77.36
2019-03-29T18:44:23.414Z,77.36
2019-03-29T18:46:54.199Z,77.24
2019-03-29T18:49:25.183Z,77.27
2019-03-29T18:51:55.628Z,77.33
2019-03-29T18:54:26.496Z,77.44
2019-03-29T18:56:57.388Z,77.54
2019-03-29T18:59:28.525Z,77.39
2019-03-29T19:01:59.764Z,77.37
2019-03-29T19:04:33.723Z,77.45
2019-03-29T19:07:04.408Z,77.58
2019-03-29T19:09:35.204Z,77.62
2019-03-29T19:12:05.993Z,77.61
2019-03-29T19:14:36.823Z,77.60
2019-03-29T19:17:09.801Z,77.55
2019-03-29T19:19:40.533Z,77.51
2019-03-29T19:22:11.688Z,77.48
2019-03-29T19:24:42.821Z,77.53
2019-03-29T19:27:13.587Z,77.62
2019-03-29T19:29:44.507Z,77.78
2019-03-29T19:32:15.292Z,78.20
2019-03-29T19:34:46.070Z,78.53
2019-03-29T19:37:17.528Z,78.73
2019-03-29T19:39:48.661Z,78.86
2019-03-29T19:42:19.552Z,78.96
2019-03-29T19:44:50.274Z,79.13
2019-03-29T19:47:20.629Z,79.31
2019-03-29T19:49:51.152Z,79.72
2019-03-29T19:52:24.994Z,80.01
2019-03-29T19:55:01.186Z,80.15
2019-03-29T19:57:34.303Z,80.24
2019-03-29T20:00:06.533Z,80.38
2019-03-29T20:02:37.775Z,80.66
2019-03-29T20:05:30.759Z,80.87
2019-03-29T20:08:01.654Z,81.04
2019-03-29T20:10:32.458Z,81.27
2019-03-29T20:13:03.811Z,81.45
2019-03-29T20:15:37.575Z,81.66
2019-03-29T20:18:08.547Z,81.85
2019-03-29T20:20:40.484Z,81.77
2019-03-29T20:23:11.235Z,81.79
2019-03-29T20:25:45.109Z,81.94
2019-03-29T20:28:15.977Z,81.87
2019-03-29T20:30:46.704Z,81.80
2019-03-29T20:33:19.795Z,81.78
2019-03-29T20:35:50.706Z,81.88
2019-03-29T20:38:23.284Z,81.97
2019-03-29T20:40:56.776Z,82.11
2019-03-29T20:43:28.102Z,82.14
2019-03-29T20:46:04.114Z,82.31
2019-03-29T20:48:46.268Z,82.52
2019-03-29T20:51:17.216Z,82.71
2019-03-29T20:53:48.465Z,82.86
2019-03-29T20:56:19.924Z,82.87
2019-03-29T20:58:50.750Z,82.77
2019-03-29T21:01:21.377Z,82.67
2019-03-29T21:03:52.339Z,82.53
2019-03-29T21:06:23.314Z,82.46
2019-03-29T21:08:54.262Z,82.42
2019-03-29T21:11:24.989Z,82.47
2019-03-29T21:13:57.391Z,82.36
2019-03-29T21:16:31.274Z,82.22
2019-03-29T21:19:02.298Z,82.10
2019-03-29T21:21:33.522Z,82.17
2019-03-29T21:24:04.902Z,82.27
2019-03-29T21:26:35.820Z,82.50
2019-03-29T21:29:06.576Z,82.63
2019-03-29T21:31:37.223Z,82.56
2019-03-29T21:34:08.188Z,82.65
2019-03-29T21:36:39.275Z,82.82
2019-03-29T21:39:12.991Z,82.89
2019-03-29T21:41:43.605Z,83.05
2019-03-29T21:44:14.076Z,83.24
2019-03-29T21:46:44.939Z,83.23
2019-03-29T21:49:15.833Z,83.17
2019-03-29T21:51:46.657Z,83.17
2019-03-29T21:54:20.109Z,83.10
2019-03-29T21:56:51.021Z,83.04
2019-03-29T21:59:21.510Z,82.86
2019-03-29T22:01:52.302Z,82.77
2019-03-29T22:04:22.803Z,82.58
2019-03-29T22:06:54.053Z,82.49
2019-03-29T22:09:36.399Z,82.32
2019-03-29T22:11:56.668Z,82.13
2019-03-29T22:14:27.451Z,82.01
2019-03-29T22:16:58.578Z,81.96
2019-03-29T22:19:29.540Z,81.89
2019-03-29T22:22:00.251Z,81.76
2019-03-29T22:24:30.863Z,81.60
2019-03-29T22:27:01.460Z,81.51
2019-03-29T22:29:32.253Z,81.45
2019-03-29T22:32:03.175Z,81.38
2019-03-29T22:34:34.148Z,81.39
2019-03-29T22:37:04.842Z,81.42
2019-03-29T22:39:35.533Z,81.40
2019-03-29T22:42:06.524Z,81.38
2019-03-29T22:44:37.047Z,81.43
2019-03-29T22:47:08.034Z,81.47
2019-03-29T22:49:38.802Z,81.35
2019-03-29T22:52:09.374Z,81.32
2019-03-29T22:54:39.916Z,81.23
2019-03-29T22:57:11.480Z,81.17
2019-03-29T22:59:42.509Z,81.09
2019-03-29T23:02:13.957Z,81.08
2019-03-29T23:04:44.826Z,80.97
2019-03-29T23:07:16.039Z,80.91
2019-03-29T23:09:47.284Z,80.93
2019-03-29T23:12:18.228Z,80.81
2019-03-29T23:14:49.119Z,80.88
2019-03-29T23:17:19.808Z,80.81
2019-03-29T23:19:50.789Z,80.79
2019-03-29T23:22:21.594Z,80.57
2019-03-29T23:24:52.174Z,80.68
2019-03-29T23:27:22.809Z,80.59
2019-03-29T23:29:53.503Z,80.52
2019-03-29T23:32:24.032Z,80.54
2019-03-29T23:34:54.730Z,80.54
2019-03-29T23:37:25.433Z,80.51
2019-03-29T23:39:56.236Z,80.48
2019-03-29T23:42:26.959Z,80.35
2019-03-29T23:44:57.731Z,80.25
2019-03-29T23:47:28.649Z,80.22
2019-03-29T23:49:59.313Z,80.18
2019-03-29T23:52:29.938Z,80.05
2019-03-29T23:55:01.006Z,80.09
2019-03-29T23:57:31.846Z,80.02
